This is the latest recevied weather packets stored in our database for station/object KQ7A. If no packets are shown the sender has not sent any weather packets the latest 10 day(s).
| Time | Temp. | Humidity | Pressure | Rain* | Wind** | Luminosity | Snow |
|---|---|---|---|---|---|---|---|
| 1777628359 | 5.56° C | 54% | 1019.2 hPa | 0 mm | - | 0 W/m² | - |
| 1777628055 | 6.11° C | 55% | 1018.9 hPa | 0 mm | - | 0 W/m² | - |
| 1777627754 | 6.11° C | 54% | 1019.1 hPa | 0 mm | - | 0 W/m² | - |
| 1777627454 | 5.56° C | 56% | 1019.1 hPa | 0 mm | - | 0 W/m² | - |
| 1777627150 | 5° C | 64% | 1018.8 hPa | 0 mm | - | 0 W/m² | - |
| 1777626847 | 5° C | 65% | 1019 hPa | 0 mm | - | 0 W/m² | - |
| 1777626543 | 5.56° C | 59% | 1018.9 hPa | 0 mm | - | 0 W/m² | - |
| 1777626238 | 6.67° C | 54% | 1019.2 hPa | 0 mm | - | 0 W/m² | - |
| 1777625936 | 7.22° C | 51% | 1019 hPa | 0 mm | - | 0 W/m² | - |
| 1777625632 | 5.56° C | 54% | 1019.3 hPa | 0 mm | - | 0 W/m² | - |
| 1777625328 | 6.11° C | 54% | 1019.4 hPa | 0 mm | - | 0 W/m² | - |
| 1777625025 | 5.56° C | 57% | 1019.3 hPa | 0 mm | - | 0 W/m² | - |
| 1777624721 | 5.56° C | 57% | 1019.6 hPa | 0 mm | - | 0 W/m² | - |
| 1777624417 | 5° C | 61% | 1019.6 hPa | 0 mm | - | 0 W/m² | - |
| 1777624114 | 5° C | 72% | 1019.7 hPa | 0 mm | - | 0 W/m² | - |
| 1777623811 | 4.44° C | 66% | 1019.6 hPa | 0 mm | - | 0 W/m² | - |
| 1777623507 | 5° C | 67% | 1019.4 hPa | 0 mm | - | 0 W/m² | - |
| 1777623205 | 5.56° C | 66% | 1019.2 hPa | 0 mm | - | 0 W/m² | - |
| 1777622902 | 6.67° C | 55% | 1019.4 hPa | 0 mm | - | 0 W/m² | - |
| 1777622598 | 7.22° C | 53% | 1019.2 hPa | 0 mm | - | 0 W/m² | - |
| 1777622295 | 6.67° C | 52% | 1019.4 hPa | 0 mm | - | 0 W/m² | - |
| 1777621992 | 6.11° C | 55% | 1019.4 hPa | 0 mm | - | 0 W/m² | - |
| 1777621687 | 5.56° C | 58% | 1019.4 hPa | 0 mm | - | 0 W/m² | - |
| 1777621079 | 5.56° C | 66% | 1019.4 hPa | 0 mm | - | 0 W/m² | - |
| 1777620775 | 6.11° C | 66% | 1019.4 hPa | 0 mm | - | 0 W/m² | - |
* Rain latest hour (hover to see other rain measurements)
** Current wind speed in m/s (hover to see current wind gust speed)